createdAt,value
2019-04-16T00:00:25.516Z,87.82
2019-04-16T00:02:58.052Z,87.82
2019-04-16T00:05:43.183Z,87.77
2019-04-16T00:08:27.162Z,88.24
2019-04-16T00:10:50.365Z,88.50
2019-04-16T00:13:26.328Z,88.59
2019-04-16T00:16:01.168Z,88.85
2019-04-16T00:18:32.801Z,89.50
2019-04-16T00:21:22.431Z,89.04
2019-04-16T00:23:59.571Z,89.05
2019-04-16T00:26:31.190Z,89.05
2019-04-16T00:29:03.191Z,88.75
2019-04-16T00:31:37.068Z,88.93
2019-04-16T00:34:08.549Z,88.93
2019-04-16T00:36:40.034Z,89.16
2019-04-16T00:39:11.667Z,89.05
2019-04-16T00:41:43.157Z,89.05
2019-04-16T00:44:16.797Z,89.69
2019-04-16T00:46:48.335Z,88.68
2019-04-16T00:49:19.864Z,89.02
2019-04-16T00:51:51.365Z,88.75
2019-04-16T00:54:22.881Z,89.28
2019-04-16T00:56:54.452Z,88.01
2019-04-16T00:59:25.923Z,88.86
2019-04-16T01:01:57.456Z,88.33
2019-04-16T01:04:28.951Z,88.23
2019-04-16T01:07:00.975Z,87.17
2019-04-16T01:09:32.745Z,87.19
2019-04-16T01:12:05.046Z,86.67
2019-04-16T01:14:37.574Z,86.79
2019-04-16T01:17:09.356Z,86.79
2019-04-16T01:19:41.820Z,87.11
2019-04-16T01:22:16.084Z,87.56
2019-04-16T01:24:51.393Z,87.66
2019-04-16T01:27:22.231Z,87.45
2019-04-16T01:29:53.948Z,87.54
2019-04-16T01:32:42.447Z,88.02
2019-04-16T01:35:31.265Z,88.02
2019-04-16T01:38:19.685Z,88.05
2019-04-16T01:40:55.677Z,87.95
2019-04-16T01:43:28.218Z,88.34
2019-04-16T01:46:01.558Z,88.23
2019-04-16T01:48:38.670Z,88.32
2019-04-16T01:51:08.364Z,88.68
2019-04-16T01:53:40.307Z,89.01
2019-04-16T01:56:12.039Z,89.01
2019-04-16T01:58:43.586Z,88.87
2019-04-16T02:01:15.159Z,89.12
2019-04-16T02:03:48.870Z,89.12
2019-04-16T02:06:19.908Z,89.15
2019-04-16T02:08:52.294Z,89.23
2019-04-16T02:11:23.801Z,89.01
2019-04-16T02:13:56.557Z,89.19
2019-04-16T02:16:28.069Z,89.09
2019-04-16T02:19:01.372Z,89.21
2019-04-16T02:21:33.042Z,88.91
2019-04-16T02:24:04.661Z,88.66
2019-04-16T02:26:36.422Z,88.60
2019-04-16T02:29:08.283Z,88.88
2019-04-16T02:31:41.187Z,89.02
2019-04-16T02:34:13.049Z,88.87
2019-04-16T02:36:44.574Z,88.86
2019-04-16T02:39:16.166Z,88.86
2019-04-16T02:41:48.026Z,88.82
2019-04-16T02:44:19.986Z,88.89
2019-04-16T02:46:53.128Z,88.87
2019-04-16T02:49:25.269Z,88.55
2019-04-16T02:51:58.704Z,88.44
2019-04-16T02:54:40.958Z,88.44
2019-04-16T02:57:27.890Z,88.45
2019-04-16T03:00:03.337Z,88.11
2019-04-16T03:02:40.700Z,88.06
2019-04-16T03:05:22.460Z,88.17
2019-04-16T03:07:54.088Z,88.33
2019-04-16T03:10:25.694Z,88.50
2019-04-16T03:12:58.816Z,88.39
2019-04-16T03:15:48.724Z,88.39
2019-04-16T03:18:21.968Z,88.77
2019-04-16T03:20:56.651Z,89.15
2019-04-16T03:23:28.381Z,89.15
2019-04-16T03:26:01.910Z,89.39
2019-04-16T03:28:35.122Z,89.39
2019-04-16T03:31:09.627Z,89.68
2019-04-16T03:33:48.262Z,89.68
2019-04-16T03:36:14.601Z,89.80
2019-04-16T03:38:48.755Z,89.76
2019-04-16T03:41:20.326Z,89.59
2019-04-16T03:43:51.976Z,89.98
2019-04-16T03:46:28.683Z,90.06
2019-04-16T03:49:00.495Z,89.84
2019-04-16T03:51:35.272Z,90.19
2019-04-16T03:54:06.792Z,90.19
2019-04-16T03:56:39.912Z,89.88
2019-04-16T03:59:12.335Z,89.90
2019-04-16T04:01:46.189Z,89.94
2019-04-16T04:04:17.700Z,89.88
2019-04-16T04:06:49.661Z,90.04
2019-04-16T04:09:22.179Z,89.76
2019-04-16T04:11:54.418Z,89.63
2019-04-16T04:14:25.962Z,89.53
2019-04-16T04:16:57.506Z,89.65
2019-04-16T04:19:32.078Z,89.71
2019-04-16T04:22:03.661Z,89.35
2019-04-16T04:24:35.428Z,89.33
2019-04-16T04:27:07.071Z,89.00
2019-04-16T04:29:38.874Z,89.10
2019-04-16T04:32:10.619Z,89.11
2019-04-16T04:34:42.280Z,89.31
2019-04-16T04:37:13.894Z,89.25
2019-04-16T04:39:45.442Z,89.50
2019-04-16T04:42:18.912Z,89.50
2019-04-16T04:44:50.192Z,88.91
2019-04-16T04:47:21.797Z,89.34
2019-04-16T04:49:53.472Z,88.64
2019-04-16T04:52:27.394Z,88.12
2019-04-16T04:54:58.496Z,89.39
2019-04-16T04:57:32.040Z,89.39
2019-04-16T05:00:05.618Z,89.45
2019-04-16T05:02:38.954Z,90.02
2019-04-16T05:05:12.060Z,90.02
2019-04-16T05:07:43.814Z,89.71
2019-04-16T05:10:15.413Z,89.39
2019-04-16T05:12:52.608Z,89.41
2019-04-16T05:15:23.057Z,88.76
2019-04-16T05:17:55.848Z,89.02
2019-04-16T05:20:29.828Z,89.10
2019-04-16T05:23:01.511Z,89.12
2019-04-16T05:25:34.367Z,89.12
2019-04-16T05:28:06.161Z,89.22
2019-04-16T05:30:40.370Z,88.98
2019-04-16T05:33:12.069Z,89.18
2019-04-16T05:35:44.712Z,88.89
2019-04-16T05:38:16.447Z,88.47
2019-04-16T05:40:48.132Z,87.89
2019-04-16T05:43:22.590Z,87.79
2019-04-16T05:45:52.948Z,87.69
2019-04-16T05:48:26.281Z,87.25
2019-04-16T05:50:59.996Z,86.46
2019-04-16T05:53:32.549Z,87.13
2019-04-16T05:56:08.630Z,86.47
2019-04-16T05:58:41.137Z,88.08
2019-04-16T06:01:20.527Z,87.90
2019-04-16T06:03:54.352Z,88.86
2019-04-16T06:06:28.569Z,89.51
2019-04-16T06:08:59.219Z,89.78
2019-04-16T06:11:35.684Z,89.25
2019-04-16T06:14:05.990Z,88.64
2019-04-16T06:16:56.809Z,89.39
2019-04-16T06:19:33.771Z,88.50
2019-04-16T06:22:10.233Z,88.86
2019-04-16T06:24:58.454Z,88.86
2019-04-16T06:27:48.124Z,89.33
2019-04-16T06:30:24.131Z,88.53
2019-04-16T06:32:57.248Z,88.57
2019-04-16T06:35:43.298Z,88.28
2019-04-16T06:38:16.788Z,88.60
2019-04-16T06:40:55.944Z,88.60
2019-04-16T06:43:31.933Z,89.55
2019-04-16T06:46:05.500Z,91.22
2019-04-16T06:48:52.778Z,91.22
2019-04-16T06:51:34.941Z,90.22
2019-04-16T06:54:25.563Z,90.73
2019-04-16T06:57:18.091Z,91.80
2019-04-16T06:59:59.445Z,91.80
2019-04-16T07:03:01.665Z,91.77
2019-04-16T07:05:34.546Z,92.90
2019-04-16T07:08:10.047Z,92.90
2019-04-16T07:10:48.940Z,92.26
2019-04-16T07:13:20.600Z,92.76
2019-04-16T07:15:56.420Z,92.18
2019-04-16T07:18:25.721Z,92.18
2019-04-16T07:21:03.058Z,93.48
2019-04-16T07:23:35.243Z,94.12
2019-04-16T07:26:07.376Z,92.23
2019-04-16T07:28:40.652Z,92.50
2019-04-16T07:31:31.819Z,91.81
2019-04-16T07:33:54.991Z,91.28
2019-04-16T07:36:32.208Z,92.06
2019-04-16T07:39:28.841Z,92.90
2019-04-16T07:42:11.780Z,91.95
2019-04-16T07:44:54.753Z,92.53
2019-04-16T07:47:41.419Z,92.09
2019-04-16T07:50:22.419Z,91.78
2019-04-16T07:52:58.792Z,90.65
2019-04-16T07:55:38.166Z,88.64
2019-04-16T07:58:10.825Z,88.77
2019-04-16T08:00:42.450Z,90.51
2019-04-16T08:03:14.207Z,90.51
2019-04-16T08:05:49.612Z,90.30
2019-04-16T08:08:24.349Z,90.99
2019-04-16T08:10:56.112Z,91.30
2019-04-16T08:13:34.281Z,91.05
2019-04-16T08:16:06.671Z,90.56
2019-04-16T08:18:40.369Z,90.78
2019-04-16T08:21:13.636Z,90.91
2019-04-16T08:23:52.874Z,90.90
2019-04-16T08:26:23.236Z,90.17
2019-04-16T08:28:56.612Z,89.00
2019-04-16T08:31:30.624Z,87.30
2019-04-16T08:34:05.406Z,87.30
2019-04-16T08:36:38.171Z,87.29
2019-04-16T08:39:12.334Z,86.40
2019-04-16T08:41:45.256Z,86.09
2019-04-16T08:44:17.900Z,86.63
2019-04-16T08:46:50.577Z,85.31
2019-04-16T08:49:24.244Z,86.11
2019-04-16T08:51:59.764Z,85.28
2019-04-16T08:54:32.858Z,85.05
2019-04-16T08:57:06.223Z,84.91
2019-04-16T08:59:44.960Z,84.24
2019-04-16T09:02:19.163Z,85.61
2019-04-16T09:04:55.151Z,84.87
2019-04-16T09:07:42.935Z,85.97
2019-04-16T09:10:23.326Z,86.35
2019-04-16T09:13:03.036Z,86.46
2019-04-16T09:15:30.767Z,85.21
2019-04-16T09:18:04.483Z,84.17
2019-04-16T09:20:38.469Z,80.86
2019-04-16T09:23:11.327Z,81.43
2019-04-16T09:26:13.519Z,82.28
2019-04-16T09:28:55.851Z,82.58
2019-04-16T09:31:35.787Z,81.90
2019-04-16T09:34:16.096Z,82.68
2019-04-16T09:36:50.260Z,82.38
2019-04-16T09:39:24.185Z,83.37
2019-04-16T09:41:56.806Z,82.79
2019-04-16T09:44:34.970Z,83.31
2019-04-16T09:47:05.513Z,82.02
2019-04-16T09:49:38.462Z,81.49
2019-04-16T09:52:11.384Z,81.45
2019-04-16T09:54:45.253Z,81.70
2019-04-16T09:57:18.048Z,81.54
2019-04-16T09:59:53.462Z,81.57
2019-04-16T10:02:27.899Z,81.10
2019-04-16T10:05:01.162Z,80.58
2019-04-16T10:07:39.802Z,80.52
2019-04-16T10:10:12.670Z,80.68
2019-04-16T10:12:49.837Z,80.33
2019-04-16T10:15:26.317Z,80.22
2019-04-16T10:18:01.588Z,80.28
2019-04-16T10:20:36.412Z,80.89
2019-04-16T10:23:12.726Z,80.28
2019-04-16T10:25:54.176Z,80.91
2019-04-16T10:28:37.112Z,81.22
2019-04-16T10:31:12.838Z,81.65
2019-04-16T10:33:46.193Z,82.21
2019-04-16T10:36:31.218Z,82.23
2019-04-16T10:39:06.204Z,80.99
2019-04-16T10:41:49.361Z,80.98
2019-04-16T10:44:25.832Z,81.18
2019-04-16T10:47:16.600Z,80.56
2019-04-16T10:49:51.957Z,80.18
2019-04-16T10:52:42.442Z,80.71
2019-04-16T10:55:35.806Z,79.96
2019-04-16T10:58:13.676Z,80.22
2019-04-16T11:01:05.540Z,80.79
2019-04-16T11:03:40.683Z,80.65
2019-04-16T11:06:15.490Z,80.58
2019-04-16T11:08:47.499Z,80.58
2019-04-16T11:11:19.515Z,79.42
2019-04-16T11:13:59.831Z,79.92
2019-04-16T11:16:26.199Z,78.88
2019-04-16T11:19:01.131Z,79.14
2019-04-16T11:21:32.988Z,76.87
2019-04-16T11:24:05.000Z,77.12
2019-04-16T11:26:40.012Z,78.19
2019-04-16T11:29:12.967Z,78.25
2019-04-16T11:31:45.177Z,76.41
2019-04-16T11:34:17.798Z,76.29
2019-04-16T11:37:08.245Z,77.57
2019-04-16T11:39:58.238Z,77.22
2019-04-16T11:42:30.313Z,74.45
2019-04-16T11:45:02.689Z,75.54
2019-04-16T11:47:34.905Z,76.73
2019-04-16T11:50:08.081Z,74.60
2019-04-16T11:52:41.858Z,75.95
2019-04-16T11:55:14.889Z,74.37
2019-04-16T11:57:48.454Z,75.63
2019-04-16T12:00:40.814Z,74.68
2019-04-16T12:03:36.566Z,76.86
2019-04-16T12:06:29.897Z,75.96
2019-04-16T12:09:20.507Z,75.71
2019-04-16T12:11:57.108Z,77.91
2019-04-16T12:14:34.891Z,78.56
2019-04-16T12:17:15.674Z,79.27
2019-04-16T12:20:06.282Z,79.97
2019-04-16T12:22:45.508Z,81.51
2019-04-16T12:25:30.656Z,82.50
2019-04-16T12:28:06.716Z,80.89
2019-04-16T12:30:58.232Z,81.59
2019-04-16T12:33:38.345Z,81.53
2019-04-16T12:36:28.514Z,81.49
2019-04-16T12:39:08.159Z,81.36
2019-04-16T12:42:02.106Z,81.64
2019-04-16T12:44:46.103Z,81.21
2019-04-16T12:47:22.694Z,80.29
2019-04-16T12:50:17.205Z,80.41
2019-04-16T12:52:55.103Z,81.38
2019-04-16T12:55:31.729Z,81.80
2019-04-16T12:58:25.819Z,82.91
2019-04-16T13:01:19.575Z,79.39
2019-04-16T13:03:52.775Z,81.00
2019-04-16T13:06:29.122Z,79.65
2019-04-16T13:09:08.571Z,78.02
2019-04-16T13:11:47.206Z,77.88
2019-04-16T13:14:37.814Z,74.55
2019-04-16T13:17:18.780Z,74.05
2019-04-16T13:20:06.980Z,76.07
2019-04-16T13:23:00.496Z,74.83
2019-04-16T13:25:47.948Z,74.77
2019-04-16T13:28:23.835Z,76.30
2019-04-16T13:30:57.981Z,75.24
2019-04-16T13:33:29.920Z,76.11
2019-04-16T13:36:03.357Z,77.09
2019-04-16T13:38:40.342Z,76.95
2019-04-16T13:41:26.336Z,78.50
2019-04-16T13:43:59.308Z,78.56
2019-04-16T13:46:37.131Z,76.85
2019-04-16T13:49:17.424Z,77.33
2019-04-16T13:51:58.257Z,76.96
2019-04-16T13:54:34.332Z,76.60
2019-04-16T13:57:08.493Z,77.06
2019-04-16T14:00:04.373Z,77.11
2019-04-16T14:03:01.153Z,77.23
2019-04-16T14:05:37.529Z,77.35
2019-04-16T14:10:50.368Z,77.97
2019-04-16T14:13:24.392Z,78.05
2019-04-16T14:15:57.632Z,79.15
2019-04-16T14:21:49.993Z,78.73
2019-04-16T14:24:22.277Z,76.27
2019-04-16T14:26:55.114Z,76.96
2019-04-16T14:29:26.901Z,77.28
2019-04-16T14:31:58.787Z,75.43
2019-04-16T14:34:35.463Z,76.33
2019-04-16T14:37:08.452Z,77.32
2019-04-16T14:39:42.047Z,77.75
2019-04-16T14:42:14.865Z,75.87
2019-04-16T14:44:49.226Z,77.55
2019-04-16T14:47:22.730Z,77.12
2019-04-16T14:49:54.718Z,78.14
2019-04-16T14:52:26.437Z,77.74
2019-04-16T14:55:05.776Z,76.70
2019-04-16T14:57:42.434Z,76.87
2019-04-16T15:00:23.101Z,77.19
2019-04-16T15:03:05.836Z,76.12
2019-04-16T15:05:55.688Z,75.88
2019-04-16T15:08:31.979Z,76.34
2019-04-16T15:11:21.593Z,76.91
2019-04-16T15:14:13.331Z,76.57
2019-04-16T15:17:02.821Z,76.68
2019-04-16T15:19:36.076Z,76.98
2019-04-16T15:22:25.066Z,76.74
2019-04-16T15:25:14.471Z,77.69
2019-04-16T15:28:00.928Z,76.12
2019-04-16T15:30:39.998Z,75.85
2019-04-16T15:33:39.048Z,76.50
2019-04-16T15:36:22.892Z,76.53
2019-04-16T15:39:08.213Z,76.56
2019-04-16T15:41:48.715Z,76.95
2019-04-16T15:44:31.586Z,77.20
2019-04-16T15:47:05.727Z,80.32
2019-04-16T15:49:39.284Z,79.26
2019-04-16T15:52:29.042Z,79.34
2019-04-16T15:55:02.890Z,80.72
2019-04-16T15:57:52.925Z,78.80
2019-04-16T16:00:48.675Z,77.96
2019-04-16T16:03:28.112Z,79.31
2019-04-16T16:06:01.378Z,79.59
2019-04-16T16:08:35.874Z,79.98
2019-04-16T16:11:09.505Z,78.76
2019-04-16T16:13:41.208Z,77.32
2019-04-16T16:16:18.060Z,79.27
2019-04-16T16:18:50.124Z,78.83
2019-04-16T16:21:22.978Z,78.49
2019-04-16T16:23:55.713Z,78.79
2019-04-16T16:26:27.433Z,79.67
2019-04-16T16:28:59.195Z,80.70
2019-04-16T16:31:35.073Z,80.85
2019-04-16T16:34:08.038Z,82.83
2019-04-16T16:36:40.734Z,81.35
2019-04-16T16:39:12.371Z,80.97
2019-04-16T16:41:46.606Z,80.57
2019-04-16T16:44:18.614Z,80.97
2019-04-16T16:46:57.308Z,80.43
2019-04-16T16:49:28.245Z,81.00
2019-04-16T16:52:18.157Z,80.93
2019-04-16T16:54:53.440Z,79.90
2019-04-16T16:57:30.763Z,82.69
2019-04-16T17:00:23.895Z,83.01
2019-04-16T17:03:00.700Z,82.55
2019-04-16T17:05:37.323Z,83.42
2019-04-16T17:08:08.967Z,82.11
2019-04-16T17:10:42.559Z,82.26
2019-04-16T17:13:16.974Z,83.20
2019-04-16T17:15:49.611Z,82.03
2019-04-16T17:18:22.006Z,82.13
2019-04-16T17:20:53.958Z,83.54
2019-04-16T17:23:26.167Z,80.61
2019-04-16T17:25:59.057Z,81.70
2019-04-16T17:28:30.775Z,82.52
2019-04-16T17:31:02.593Z,82.99
2019-04-16T17:33:34.238Z,84.65
2019-04-16T17:36:06.440Z,82.54
2019-04-16T17:38:38.048Z,80.23
2019-04-16T17:41:11.776Z,78.21
2019-04-16T17:43:59.884Z,78.60
2019-04-16T17:46:24.733Z,80.42
2019-04-16T17:48:59.785Z,80.30
2019-04-16T17:51:32.816Z,81.85
2019-04-16T17:54:13.085Z,81.97
2019-04-16T17:56:46.456Z,82.44
2019-04-16T17:59:22.015Z,83.15
2019-04-16T18:01:55.258Z,84.22
2019-04-16T18:04:38.307Z,83.35
2019-04-16T18:07:18.818Z,83.37
2019-04-16T18:10:07.314Z,81.50
2019-04-16T18:12:57.144Z,81.34
2019-04-16T18:15:30.454Z,81.18
2019-04-16T18:18:16.944Z,81.00
2019-04-16T18:21:06.637Z,79.99
2019-04-16T18:23:44.086Z,81.15
2019-04-16T18:26:17.295Z,80.75
2019-04-16T18:28:56.641Z,81.40
2019-04-16T18:31:39.190Z,81.51
2019-04-16T18:34:24.414Z,82.28
2019-04-16T18:37:13.374Z,83.82
2019-04-16T18:39:51.125Z,82.96
2019-04-16T18:42:24.298Z,83.14
2019-04-16T18:45:03.502Z,83.12
2019-04-16T18:48:01.531Z,83.93
2019-04-16T18:50:26.018Z,84.06
2019-04-16T18:52:56.372Z,82.94
2019-04-16T18:55:27.973Z,84.10
2019-04-16T18:57:59.424Z,82.95
2019-04-16T19:00:33.187Z,83.27
2019-04-16T19:03:05.108Z,84.00
2019-04-16T19:05:36.894Z,83.52
2019-04-16T19:08:08.735Z,83.35
2019-04-16T19:10:40.435Z,83.30
2019-04-16T19:13:12.305Z,83.87
2019-04-16T19:15:43.854Z,84.56
2019-04-16T19:18:19.860Z,84.01
2019-04-16T19:20:51.874Z,84.20
2019-04-16T19:23:22.421Z,84.43
2019-04-16T19:25:55.473Z,84.34
2019-04-16T19:28:28.814Z,84.54
2019-04-16T19:31:02.425Z,84.42
2019-04-16T19:33:38.114Z,83.99
2019-04-16T19:36:07.146Z,84.30
2019-04-16T19:38:40.641Z,83.04
2019-04-16T19:41:12.655Z,82.59
2019-04-16T19:43:44.360Z,82.41
2019-04-16T19:46:16.355Z,82.10
2019-04-16T19:48:48.150Z,82.28
2019-04-16T19:51:20.058Z,83.34
2019-04-16T19:53:51.686Z,82.94
2019-04-16T19:56:23.459Z,82.75
2019-04-16T19:58:55.265Z,82.17
2019-04-16T20:01:26.929Z,81.72
2019-04-16T20:03:58.600Z,81.87
2019-04-16T20:06:30.167Z,81.69
2019-04-16T20:09:02.123Z,81.24
2019-04-16T20:11:35.296Z,81.13
2019-04-16T20:16:39.172Z,79.88
2019-04-16T20:19:10.729Z,79.92
2019-04-16T20:21:42.323Z,80.46
2019-04-16T20:24:13.930Z,81.60
2019-04-16T20:26:45.704Z,81.85
2019-04-16T20:29:17.309Z,81.66
2019-04-16T20:31:48.903Z,81.11
2019-04-16T20:34:20.521Z,80.89
2019-04-16T20:36:54.747Z,80.33
2019-04-16T20:39:25.319Z,80.91
2019-04-16T20:41:59.643Z,80.36
2019-04-16T20:44:31.249Z,80.55
2019-04-16T20:47:07.929Z,81.33
2019-04-16T20:49:37.080Z,80.75
2019-04-16T20:52:08.595Z,82.32
2019-04-16T20:54:44.306Z,82.05
2019-04-16T20:57:15.933Z,81.87
2019-04-16T20:59:48.893Z,81.32
2019-04-16T21:02:20.616Z,80.34
2019-04-16T21:04:52.173Z,80.33
2019-04-16T21:07:23.719Z,81.38
2019-04-16T21:09:55.248Z,81.19
2019-04-16T21:12:27.205Z,81.55
2019-04-16T21:14:59.747Z,80.54
2019-04-16T21:17:31.853Z,80.20
2019-04-16T21:20:04.045Z,80.61
2019-04-16T21:22:35.587Z,80.97
2019-04-16T21:25:12.560Z,80.19
2019-04-16T21:27:57.791Z,80.19
2019-04-16T21:30:29.366Z,80.07
2019-04-16T21:33:08.928Z,80.18
2019-04-16T21:35:42.082Z,79.93
2019-04-16T21:38:21.444Z,80.41
2019-04-16T21:40:56.352Z,80.50
2019-04-16T21:43:27.235Z,80.65
2019-04-16T21:45:59.120Z,81.35
2019-04-16T21:48:30.829Z,80.25
2019-04-16T21:51:02.362Z,80.88
2019-04-16T21:53:33.884Z,80.74
2019-04-16T21:56:07.838Z,79.84
2019-04-16T21:58:38.632Z,79.84
2019-04-16T22:01:11.725Z,80.19
2019-04-16T22:03:45.741Z,80.32
2019-04-16T22:06:20.303Z,80.37
2019-04-16T22:08:51.567Z,81.07
2019-04-16T22:11:26.675Z,81.17
2019-04-16T22:13:58.215Z,80.91
2019-04-16T22:16:30.585Z,80.71
2019-04-16T22:19:04.392Z,79.87
2019-04-16T22:21:35.921Z,79.87
2019-04-16T22:24:07.408Z,80.92
2019-04-16T22:26:38.973Z,81.45
2019-04-16T22:29:15.442Z,80.98
2019-04-16T22:31:45.809Z,81.80
2019-04-16T22:34:17.268Z,81.32
2019-04-16T22:36:48.788Z,81.08
2019-04-16T22:39:27.903Z,81.53
2019-04-16T22:42:17.570Z,81.25
2019-04-16T22:44:50.656Z,82.24
2019-04-16T22:47:29.797Z,81.64
2019-04-16T22:50:15.078Z,81.78
2019-04-16T22:52:34.720Z,82.79
2019-04-16T22:55:06.785Z,82.34
2019-04-16T22:57:39.430Z,81.82
2019-04-16T23:00:19.396Z,81.82
2019-04-16T23:02:50.850Z,81.10
2019-04-16T23:05:23.401Z,84.99
2019-04-16T23:07:55.034Z,86.83
2019-04-16T23:10:26.579Z,88.99
2019-04-16T23:13:00.670Z,88.55
2019-04-16T23:15:33.402Z,90.27
2019-04-16T23:18:04.892Z,90.14
2019-04-16T23:20:37.152Z,90.39
2019-04-16T23:23:09.229Z,91.62
2019-04-16T23:25:40.842Z,92.25
2019-04-16T23:28:13.376Z,92.25
2019-04-16T23:30:47.931Z,93.98
2019-04-16T23:33:20.567Z,94.08
2019-04-16T23:35:52.323Z,93.05
2019-04-16T23:38:23.926Z,92.20
2019-04-16T23:40:55.881Z,92.53
2019-04-16T23:43:32.032Z,92.31
2019-04-16T23:46:23.656Z,92.72
2019-04-16T23:49:16.518Z,92.44
2019-04-16T23:52:06.644Z,92.44
2019-04-16T23:54:40.751Z,94.44
2019-04-16T23:57:14.129Z,94.44
2019-04-16T23:59:49.696Z,93.58
